sensor_id;sensor_type;location;lat;lon;timestamp;P1;durP1;ratioP1;P2;durP2;ratioP2
72060;SDS011;59925;52.136;5.420;2023-04-24T00:01:31;1.00;;;0.50;;
72060;SDS011;59925;52.136;5.420;2023-04-24T00:03:57;0.88;;;0.40;;
72060;SDS011;59925;52.136;5.420;2023-04-24T00:06:26;1.00;;;0.40;;
72060;SDS011;59925;52.136;5.420;2023-04-24T00:08:59;1.65;;;0.43;;
72060;SDS011;59925;52.136;5.420;2023-04-24T00:11:26;1.40;;;0.50;;
72060;SDS011;59925;52.136;5.420;2023-04-24T00:13:53;2.10;;;0.40;;
72060;SDS011;59925;52.136;5.420;2023-04-24T00:16:19;1.75;;;0.40;;
72060;SDS011;59925;52.136;5.420;2023-04-24T00:18:46;1.38;;;0.50;;
72060;SDS011;59925;52.136;5.420;2023-04-24T00:21:14;1.48;;;0.70;;
72060;SDS011;59925;52.136;5.420;2023-04-24T00:23:42;1.60;;;0.88;;
72060;SDS011;59925;52.136;5.420;2023-04-24T00:26:08;2.40;;;1.13;;
72060;SDS011;59925;52.136;5.420;2023-04-24T00:28:35;2.53;;;0.95;;
72060;SDS011;59925;52.136;5.420;2023-04-24T00:31:01;1.70;;;0.85;;
72060;SDS011;59925;52.136;5.420;2023-04-24T00:33:28;1.35;;;0.88;;
72060;SDS011;59925;52.136;5.420;2023-04-24T00:35:54;2.13;;;0.90;;
72060;SDS011;59925;52.136;5.420;2023-04-24T00:38:21;3.20;;;0.87;;
72060;SDS011;59925;52.136;5.420;2023-04-24T00:40:48;1.02;;;0.60;;
72060;SDS011;59925;52.136;5.420;2023-04-24T00:43:16;2.35;;;1.30;;
72060;SDS011;59925;52.136;5.420;2023-04-24T00:45:42;1.88;;;0.90;;
72060;SDS011;59925;52.136;5.420;2023-04-24T00:48:09;1.90;;;1.30;;
72060;SDS011;59925;52.136;5.420;2023-04-24T00:50:36;3.73;;;1.27;;
72060;SDS011;59925;52.136;5.420;2023-04-24T00:53:04;2.65;;;1.10;;
72060;SDS011;59925;52.136;5.420;2023-04-24T00:55:31;3.08;;;1.05;;
72060;SDS011;59925;52.136;5.420;2023-04-24T00:57:58;3.58;;;1.27;;
72060;SDS011;59925;52.136;5.420;2023-04-24T01:00:24;2.53;;;1.55;;
72060;SDS011;59925;52.136;5.420;2023-04-24T01:02:51;2.93;;;1.43;;
72060;SDS011;59925;52.136;5.420;2023-04-24T01:05:18;2.83;;;1.40;;
72060;SDS011;59925;52.136;5.420;2023-04-24T01:07:45;3.28;;;1.40;;
72060;SDS011;59925;52.136;5.420;2023-04-24T01:10:13;3.20;;;1.83;;
72060;SDS011;59925;52.136;5.420;2023-04-24T01:12:40;3.65;;;1.88;;
72060;SDS011;59925;52.136;5.420;2023-04-24T01:15:07;2.97;;;1.90;;
72060;SDS011;59925;52.136;5.420;2023-04-24T01:17:34;3.13;;;2.10;;
72060;SDS011;59925;52.136;5.420;2023-04-24T01:20:01;4.65;;;1.80;;
72060;SDS011;59925;52.136;5.420;2023-04-24T01:22:30;4.88;;;2.28;;
72060;SDS011;59925;52.136;5.420;2023-04-24T01:24:56;3.95;;;2.30;;
72060;SDS011;59925;52.136;5.420;2023-04-24T01:27:23;3.27;;;2.40;;
72060;SDS011;59925;52.136;5.420;2023-04-24T01:29:50;3.35;;;2.20;;
72060;SDS011;59925;52.136;5.420;2023-04-24T01:32:17;4.50;;;2.00;;
72060;SDS011;59925;52.136;5.420;2023-04-24T01:34:45;3.33;;;2.28;;
72060;SDS011;59925;52.136;5.420;2023-04-24T01:37:12;3.38;;;2.20;;
72060;SDS011;59925;52.136;5.420;2023-04-24T01:39:39;2.90;;;2.03;;
72060;SDS011;59925;52.136;5.420;2023-04-24T01:42:06;3.60;;;2.53;;
72060;SDS011;59925;52.136;5.420;2023-04-24T01:44:33;3.55;;;2.53;;
72060;SDS011;59925;52.136;5.420;2023-04-24T01:47:00;4.85;;;2.70;;
72060;SDS011;59925;52.136;5.420;2023-04-24T01:49:27;3.70;;;2.38;;
72060;SDS011;59925;52.136;5.420;2023-04-24T01:51:53;4.13;;;2.57;;
72060;SDS011;59925;52.136;5.420;2023-04-24T01:54:20;3.75;;;2.75;;
72060;SDS011;59925;52.136;5.420;2023-04-24T01:56:46;4.50;;;2.78;;
72060;SDS011;59925;52.136;5.420;2023-04-24T01:59:13;3.15;;;2.33;;
72060;SDS011;59925;52.136;5.420;2023-04-24T02:01:41;3.60;;;2.50;;
72060;SDS011;59925;52.136;5.420;2023-04-24T02:04:07;5.53;;;2.97;;
72060;SDS011;59925;52.136;5.420;2023-04-24T02:06:35;4.72;;;3.10;;
72060;SDS011;59925;52.136;5.420;2023-04-24T02:09:02;4.13;;;2.60;;
72060;SDS011;59925;52.136;5.420;2023-04-24T02:11:29;5.60;;;2.72;;
72060;SDS011;59925;52.136;5.420;2023-04-24T02:13:56;3.72;;;3.10;;
72060;SDS011;59925;52.136;5.420;2023-04-24T02:16:22;5.60;;;2.90;;
72060;SDS011;59925;52.136;5.420;2023-04-24T02:18:49;4.75;;;3.25;;
72060;SDS011;59925;52.136;5.420;2023-04-24T02:21:15;4.32;;;2.97;;
72060;SDS011;59925;52.136;5.420;2023-04-24T02:23:42;3.65;;;2.72;;
72060;SDS011;59925;52.136;5.420;2023-04-24T02:26:08;4.25;;;2.85;;
72060;SDS011;59925;52.136;5.420;2023-04-24T02:28:35;4.40;;;2.37;;
72060;SDS011;59925;52.136;5.420;2023-04-24T02:31:01;4.63;;;2.55;;
72060;SDS011;59925;52.136;5.420;2023-04-24T02:33:28;3.05;;;2.20;;
72060;SDS011;59925;52.136;5.420;2023-04-24T02:35:54;3.28;;;2.50;;
72060;SDS011;59925;52.136;5.420;2023-04-24T02:38:21;4.03;;;2.47;;
72060;SDS011;59925;52.136;5.420;2023-04-24T02:40:48;4.77;;;2.47;;
72060;SDS011;59925;52.136;5.420;2023-04-24T02:43:14;3.78;;;1.98;;
72060;SDS011;59925;52.136;5.420;2023-04-24T02:45:41;5.15;;;2.45;;
72060;SDS011;59925;52.136;5.420;2023-04-24T02:48:07;4.25;;;2.15;;
72060;SDS011;59925;52.136;5.420;2023-04-24T02:50:34;3.88;;;2.20;;
72060;SDS011;59925;52.136;5.420;2023-04-24T02:53:00;3.13;;;2.00;;
72060;SDS011;59925;52.136;5.420;2023-04-24T02:55:27;3.80;;;2.00;;
72060;SDS011;59925;52.136;5.420;2023-04-24T02:57:53;4.28;;;2.40;;
72060;SDS011;59925;52.136;5.420;2023-04-24T03:00:19;3.33;;;2.40;;
72060;SDS011;59925;52.136;5.420;2023-04-24T03:02:46;3.88;;;2.38;;
72060;SDS011;59925;52.136;5.420;2023-04-24T03:05:13;5.07;;;2.90;;
72060;SDS011;59925;52.136;5.420;2023-04-24T03:07:39;4.63;;;2.42;;
72060;SDS011;59925;52.136;5.420;2023-04-24T03:10:06;3.60;;;2.30;;
72060;SDS011;59925;52.136;5.420;2023-04-24T03:12:33;4.43;;;2.85;;
72060;SDS011;59925;52.136;5.420;2023-04-24T03:14:59;4.20;;;2.50;;
72060;SDS011;59925;52.136;5.420;2023-04-24T03:17:26;4.10;;;2.77;;
72060;SDS011;59925;52.136;5.420;2023-04-24T03:19:52;4.05;;;2.55;;
72060;SDS011;59925;52.136;5.420;2023-04-24T03:22:19;5.35;;;2.53;;
72060;SDS011;59925;52.136;5.420;2023-04-24T03:24:45;3.67;;;2.45;;
72060;SDS011;59925;52.136;5.420;2023-04-24T03:27:12;4.38;;;2.53;;
72060;SDS011;59925;52.136;5.420;2023-04-24T03:29:38;3.23;;;2.23;;
72060;SDS011;59925;52.136;5.420;2023-04-24T03:32:05;4.15;;;2.33;;
72060;SDS011;59925;52.136;5.420;2023-04-24T03:34:31;5.28;;;2.30;;
72060;SDS011;59925;52.136;5.420;2023-04-24T03:36:57;3.22;;;2.25;;
72060;SDS011;59925;52.136;5.420;2023-04-24T03:39:24;4.63;;;2.13;;
72060;SDS011;59925;52.136;5.420;2023-04-24T03:41:51;3.30;;;1.80;;
72060;SDS011;59925;52.136;5.420;2023-04-24T03:44:17;3.92;;;2.33;;
72060;SDS011;59925;52.136;5.420;2023-04-24T03:46:44;4.93;;;2.17;;
72060;SDS011;59925;52.136;5.420;2023-04-24T03:49:10;3.90;;;1.92;;
72060;SDS011;59925;52.136;5.420;2023-04-24T03:51:36;5.53;;;2.85;;
72060;SDS011;59925;52.136;5.420;2023-04-24T03:54:03;4.30;;;2.70;;
72060;SDS011;59925;52.136;5.420;2023-04-24T03:56:29;4.43;;;2.40;;
72060;SDS011;59925;52.136;5.420;2023-04-24T03:58:56;4.88;;;2.33;;
72060;SDS011;59925;52.136;5.420;2023-04-24T04:01:22;4.80;;;2.67;;
72060;SDS011;59925;52.136;5.420;2023-04-24T04:03:50;4.10;;;2.33;;
72060;SDS011;59925;52.136;5.420;2023-04-24T04:06:16;5.03;;;2.37;;
72060;SDS011;59925;52.136;5.420;2023-04-24T04:08:44;4.25;;;2.33;;
72060;SDS011;59925;52.136;5.420;2023-04-24T04:11:10;3.80;;;1.67;;
72060;SDS011;59925;52.136;5.420;2023-04-24T04:13:37;2.70;;;1.50;;
72060;SDS011;59925;52.136;5.420;2023-04-24T04:16:03;2.70;;;1.60;;
72060;SDS011;59925;52.136;5.420;2023-04-24T04:18:30;2.67;;;1.57;;
72060;SDS011;59925;52.136;5.420;2023-04-24T04:20:56;1.83;;;0.88;;
72060;SDS011;59925;52.136;5.420;2023-04-24T04:23:23;1.80;;;1.00;;
72060;SDS011;59925;52.136;5.420;2023-04-24T04:25:49;1.98;;;1.00;;
72060;SDS011;59925;52.136;5.420;2023-04-24T04:28:16;1.73;;;0.80;;
72060;SDS011;59925;52.136;5.420;2023-04-24T04:30:46;2.67;;;1.07;;
72060;SDS011;59925;52.136;5.420;2023-04-24T04:33:13;2.10;;;1.20;;
72060;SDS011;59925;52.136;5.420;2023-04-24T04:35:40;3.08;;;1.10;;
72060;SDS011;59925;52.136;5.420;2023-04-24T04:38:07;3.33;;;1.60;;
72060;SDS011;59925;52.136;5.420;2023-04-24T04:40:34;3.50;;;1.88;;
72060;SDS011;59925;52.136;5.420;2023-04-24T04:43:00;3.23;;;1.33;;
72060;SDS011;59925;52.136;5.420;2023-04-24T04:45:27;3.35;;;1.90;;
72060;SDS011;59925;52.136;5.420;2023-04-24T04:47:54;4.88;;;2.15;;
72060;SDS011;59925;52.136;5.420;2023-04-24T04:50:21;4.68;;;2.90;;
72060;SDS011;59925;52.136;5.420;2023-04-24T04:52:49;4.88;;;2.58;;
72060;SDS011;59925;52.136;5.420;2023-04-24T04:55:15;4.17;;;2.53;;
72060;SDS011;59925;52.136;5.420;2023-04-24T04:57:41;5.13;;;2.72;;
72060;SDS011;59925;52.136;5.420;2023-04-24T05:00:08;9.10;;;3.03;;
72060;SDS011;59925;52.136;5.420;2023-04-24T05:02:36;5.85;;;3.13;;
72060;SDS011;59925;52.136;5.420;2023-04-24T05:05:03;6.50;;;3.20;;
72060;SDS011;59925;52.136;5.420;2023-04-24T05:07:30;5.37;;;2.70;;
72060;SDS011;59925;52.136;5.420;2023-04-24T05:09:56;6.07;;;2.60;;
72060;SDS011;59925;52.136;5.420;2023-04-24T05:12:22;5.35;;;3.05;;
72060;SDS011;59925;52.136;5.420;2023-04-24T05:14:49;5.63;;;2.70;;
72060;SDS011;59925;52.136;5.420;2023-04-24T05:17:15;5.63;;;2.83;;
72060;SDS011;59925;52.136;5.420;2023-04-24T05:19:42;6.53;;;3.10;;
72060;SDS011;59925;52.136;5.420;2023-04-24T05:22:09;4.85;;;2.40;;
72060;SDS011;59925;52.136;5.420;2023-04-24T05:24:37;5.82;;;2.70;;
72060;SDS011;59925;52.136;5.420;2023-04-24T05:27:04;6.03;;;2.60;;
72060;SDS011;59925;52.136;5.420;2023-04-24T05:29:31;5.07;;;2.70;;
72060;SDS011;59925;52.136;5.420;2023-04-24T05:31:57;6.73;;;2.90;;
72060;SDS011;59925;52.136;5.420;2023-04-24T05:34:24;4.50;;;2.78;;
72060;SDS011;59925;52.136;5.420;2023-04-24T05:36:51;5.30;;;3.08;;
72060;SDS011;59925;52.136;5.420;2023-04-24T05:39:17;6.28;;;2.30;;
72060;SDS011;59925;52.136;5.420;2023-04-24T05:41:43;6.05;;;2.42;;
72060;SDS011;59925;52.136;5.420;2023-04-24T05:44:10;5.03;;;2.33;;
72060;SDS011;59925;52.136;5.420;2023-04-24T05:46:36;5.00;;;2.60;;
72060;SDS011;59925;52.136;5.420;2023-04-24T05:49:03;5.97;;;2.53;;
72060;SDS011;59925;52.136;5.420;2023-04-24T05:51:29;6.85;;;2.55;;
72060;SDS011;59925;52.136;5.420;2023-04-24T05:53:57;4.65;;;2.35;;
72060;SDS011;59925;52.136;5.420;2023-04-24T05:56:24;5.40;;;2.00;;
72060;SDS011;59925;52.136;5.420;2023-04-24T05:58:50;4.28;;;1.88;;
72060;SDS011;59925;52.136;5.420;2023-04-24T06:01:16;3.30;;;1.65;;
72060;SDS011;59925;52.136;5.420;2023-04-24T06:03:44;4.05;;;1.33;;
72060;SDS011;59925;52.136;5.420;2023-04-24T06:06:11;3.47;;;1.33;;
72060;SDS011;59925;52.136;5.420;2023-04-24T06:08:37;2.30;;;0.90;;
72060;SDS011;59925;52.136;5.420;2023-04-24T06:11:03;3.45;;;1.02;;
72060;SDS011;59925;52.136;5.420;2023-04-24T06:13:30;4.28;;;1.50;;
72060;SDS011;59925;52.136;5.420;2023-04-24T06:15:56;4.78;;;1.48;;
72060;SDS011;59925;52.136;5.420;2023-04-24T06:18:23;2.78;;;1.20;;
72060;SDS011;59925;52.136;5.420;2023-04-24T06:20:49;2.20;;;0.90;;
72060;SDS011;59925;52.136;5.420;2023-04-24T06:23:15;2.13;;;0.80;;
72060;SDS011;59925;52.136;5.420;2023-04-24T06:25:42;2.65;;;0.70;;
72060;SDS011;59925;52.136;5.420;2023-04-24T06:28:08;1.75;;;0.55;;
72060;SDS011;59925;52.136;5.420;2023-04-24T06:30:35;3.33;;;0.50;;
72060;SDS011;59925;52.136;5.420;2023-04-24T06:33:01;2.17;;;0.40;;
72060;SDS011;59925;52.136;5.420;2023-04-24T06:35:44;1.25;;;0.50;;
72060;SDS011;59925;52.136;5.420;2023-04-24T06:38:10;1.30;;;0.30;;
72060;SDS011;59925;52.136;5.420;2023-04-24T06:40:37;1.13;;;0.38;;
72060;SDS011;59925;52.136;5.420;2023-04-24T06:43:04;2.72;;;0.50;;
72060;SDS011;59925;52.136;5.420;2023-04-24T06:45:32;2.90;;;1.47;;
72060;SDS011;59925;52.136;5.420;2023-04-24T06:47:58;6.35;;;3.20;;
72060;SDS011;59925;52.136;5.420;2023-04-24T06:50:25;4.68;;;2.53;;
72060;SDS011;59925;52.136;5.420;2023-04-24T06:52:51;6.88;;;3.65;;
72060;SDS011;59925;52.136;5.420;2023-04-24T06:55:18;7.97;;;4.13;;
72060;SDS011;59925;52.136;5.420;2023-04-24T06:57:44;10.27;;;5.03;;
72060;SDS011;59925;52.136;5.420;2023-04-24T07:00:11;10.00;;;5.10;;
72060;SDS011;59925;52.136;5.420;2023-04-24T07:02:38;11.32;;;5.65;;
72060;SDS011;59925;52.136;5.420;2023-04-24T07:05:04;11.88;;;5.70;;
72060;SDS011;59925;52.136;5.420;2023-04-24T07:07:31;12.13;;;5.68;;
72060;SDS011;59925;52.136;5.420;2023-04-24T07:09:57;10.80;;;5.80;;
72060;SDS011;59925;52.136;5.420;2023-04-24T07:12:24;11.13;;;6.00;;
72060;SDS011;59925;52.136;5.420;2023-04-24T07:14:51;11.25;;;6.22;;
72060;SDS011;59925;52.136;5.420;2023-04-24T07:17:17;12.68;;;6.22;;
72060;SDS011;59925;52.136;5.420;2023-04-24T07:19:44;12.82;;;6.10;;
72060;SDS011;59925;52.136;5.420;2023-04-24T07:22:11;17.00;;;6.10;;
72060;SDS011;59925;52.136;5.420;2023-04-24T07:24:43;12.10;;;6.22;;
72060;SDS011;59925;52.136;5.420;2023-04-24T07:27:10;12.05;;;6.30;;
72060;SDS011;59925;52.136;5.420;2023-04-24T07:29:38;11.43;;;5.72;;
72060;SDS011;59925;52.136;5.420;2023-04-24T07:32:04;13.20;;;5.50;;
72060;SDS011;59925;52.136;5.420;2023-04-24T07:34:31;11.63;;;5.80;;
72060;SDS011;59925;52.136;5.420;2023-04-24T07:36:57;9.70;;;5.07;;
72060;SDS011;59925;52.136;5.420;2023-04-24T07:39:24;11.52;;;5.72;;
72060;SDS011;59925;52.136;5.420;2023-04-24T07:41:50;12.07;;;5.50;;
72060;SDS011;59925;52.136;5.420;2023-04-24T07:44:17;13.35;;;5.88;;
72060;SDS011;59925;52.136;5.420;2023-04-24T07:46:43;10.93;;;4.97;;
72060;SDS011;59925;52.136;5.420;2023-04-24T07:49:12;11.18;;;5.15;;
72060;SDS011;59925;52.136;5.420;2023-04-24T07:51:40;11.88;;;5.78;;
72060;SDS011;59925;52.136;5.420;2023-04-24T07:54:07;14.27;;;6.00;;
72060;SDS011;59925;52.136;5.420;2023-04-24T07:56:34;12.52;;;5.25;;
72060;SDS011;59925;52.136;5.420;2023-04-24T07:59:02;13.07;;;4.77;;
72060;SDS011;59925;52.136;5.420;2023-04-24T08:01:28;12.13;;;4.63;;
72060;SDS011;59925;52.136;5.420;2023-04-24T08:03:54;10.15;;;5.28;;
72060;SDS011;59925;52.136;5.420;2023-04-24T08:06:22;13.23;;;5.43;;
72060;SDS011;59925;52.136;5.420;2023-04-24T08:08:48;14.40;;;5.07;;
72060;SDS011;59925;52.136;5.420;2023-04-24T08:11:15;13.57;;;5.93;;
72060;SDS011;59925;52.136;5.420;2023-04-24T08:13:41;12.27;;;4.18;;
72060;SDS011;59925;52.136;5.420;2023-04-24T08:16:07;10.50;;;3.80;;
72060;SDS011;59925;52.136;5.420;2023-04-24T08:18:34;8.68;;;3.83;;
72060;SDS011;59925;52.136;5.420;2023-04-24T08:21:02;9.60;;;4.20;;
72060;SDS011;59925;52.136;5.420;2023-04-24T08:23:28;7.80;;;3.20;;
72060;SDS011;59925;52.136;5.420;2023-04-24T08:25:55;8.45;;;3.75;;
72060;SDS011;59925;52.136;5.420;2023-04-24T08:28:23;9.23;;;2.60;;
72060;SDS011;59925;52.136;5.420;2023-04-24T08:30:49;9.50;;;2.88;;
72060;SDS011;59925;52.136;5.420;2023-04-24T08:33:23;9.93;;;2.70;;
72060;SDS011;59925;52.136;5.420;2023-04-24T08:35:50;12.40;;;2.90;;
72060;SDS011;59925;52.136;5.420;2023-04-24T08:38:16;10.57;;;3.00;;
72060;SDS011;59925;52.136;5.420;2023-04-24T08:40:43;7.88;;;2.67;;
72060;SDS011;59925;52.136;5.420;2023-04-24T08:43:12;18.80;;;2.95;;
72060;SDS011;59925;52.136;5.420;2023-04-24T08:45:39;11.50;;;2.70;;
72060;SDS011;59925;52.136;5.420;2023-04-24T08:48:06;11.20;;;2.30;;
72060;SDS011;59925;52.136;5.420;2023-04-24T08:50:45;12.00;;;2.63;;
72060;SDS011;59925;52.136;5.420;2023-04-24T08:53:11;11.63;;;2.17;;
72060;SDS011;59925;52.136;5.420;2023-04-24T08:55:38;15.75;;;2.08;;
72060;SDS011;59925;52.136;5.420;2023-04-24T08:58:05;8.32;;;1.58;;
72060;SDS011;59925;52.136;5.420;2023-04-24T09:00:31;7.03;;;1.40;;
72060;SDS011;59925;52.136;5.420;2023-04-24T09:02:59;8.50;;;1.48;;
72060;SDS011;59925;52.136;5.420;2023-04-24T09:05:27;10.63;;;1.60;;
72060;SDS011;59925;52.136;5.420;2023-04-24T09:07:55;7.63;;;1.52;;
72060;SDS011;59925;52.136;5.420;2023-04-24T09:10:23;5.93;;;1.58;;
72060;SDS011;59925;52.136;5.420;2023-04-24T09:12:51;6.40;;;1.57;;
72060;SDS011;59925;52.136;5.420;2023-04-24T09:15:19;5.88;;;1.33;;
72060;SDS011;59925;52.136;5.420;2023-04-24T09:17:46;7.53;;;1.88;;
72060;SDS011;59925;52.136;5.420;2023-04-24T09:20:13;6.30;;;1.88;;
72060;SDS011;59925;52.136;5.420;2023-04-24T09:22:40;11.07;;;1.30;;
72060;SDS011;59925;52.136;5.420;2023-04-24T09:25:08;8.40;;;1.50;;
72060;SDS011;59925;52.136;5.420;2023-04-24T09:27:41;8.98;;;1.48;;
72060;SDS011;59925;52.136;5.420;2023-04-24T09:30:10;9.90;;;1.38;;
72060;SDS011;59925;52.136;5.420;2023-04-24T09:32:37;7.88;;;1.73;;
72060;SDS011;59925;52.136;5.420;2023-04-24T09:35:13;11.32;;;1.80;;
72060;SDS011;59925;52.136;5.420;2023-04-24T09:37:45;10.37;;;1.87;;
72060;SDS011;59925;52.136;5.420;2023-04-24T09:40:22;7.03;;;1.10;;
72060;SDS011;59925;52.136;5.420;2023-04-24T09:42:52;5.40;;;1.38;;
72060;SDS011;59925;52.136;5.420;2023-04-24T09:45:20;8.02;;;1.50;;
72060;SDS011;59925;52.136;5.420;2023-04-24T09:47:50;7.57;;;1.58;;
72060;SDS011;59925;52.136;5.420;2023-04-24T09:50:18;9.43;;;1.47;;
72060;SDS011;59925;52.136;5.420;2023-04-24T09:52:55;4.47;;;1.52;;
72060;SDS011;59925;52.136;5.420;2023-04-24T09:55:24;5.78;;;1.00;;
72060;SDS011;59925;52.136;5.420;2023-04-24T09:57:51;8.15;;;1.35;;
72060;SDS011;59925;52.136;5.420;2023-04-24T10:00:24;10.40;;;1.38;;
72060;SDS011;59925;52.136;5.420;2023-04-24T10:02:56;3.70;;;0.90;;
72060;SDS011;59925;52.136;5.420;2023-04-24T10:05:28;6.32;;;0.90;;
72060;SDS011;59925;52.136;5.420;2023-04-24T10:08:03;5.28;;;1.00;;
72060;SDS011;59925;52.136;5.420;2023-04-24T10:10:34;9.82;;;1.50;;
72060;SDS011;59925;52.136;5.420;2023-04-24T10:13:04;7.28;;;1.25;;
72060;SDS011;59925;52.136;5.420;2023-04-24T10:15:31;5.70;;;0.97;;
72060;SDS011;59925;52.136;5.420;2023-04-24T10:17:58;5.60;;;1.00;;
72060;SDS011;59925;52.136;5.420;2023-04-24T10:20:26;5.03;;;0.82;;
72060;SDS011;59925;52.136;5.420;2023-04-24T10:22:55;8.45;;;1.20;;
72060;SDS011;59925;52.136;5.420;2023-04-24T10:25:26;6.65;;;1.10;;
72060;SDS011;59925;52.136;5.420;2023-04-24T10:27:54;8.37;;;0.80;;
72060;SDS011;59925;52.136;5.420;2023-04-24T10:30:29;1.58;;;0.70;;
72060;SDS011;59925;52.136;5.420;2023-04-24T10:33:04;6.63;;;0.75;;
72060;SDS011;59925;52.136;5.420;2023-04-24T10:35:34;2.88;;;0.60;;
72060;SDS011;59925;52.136;5.420;2023-04-24T10:38:08;1.52;;;0.60;;
72060;SDS011;59925;52.136;5.420;2023-04-24T10:40:37;4.23;;;0.70;;
72060;SDS011;59925;52.136;5.420;2023-04-24T10:43:07;2.38;;;0.60;;
72060;SDS011;59925;52.136;5.420;2023-04-24T10:45:37;4.47;;;0.50;;
72060;SDS011;59925;52.136;5.420;2023-04-24T10:48:05;2.15;;;0.30;;
72060;SDS011;59925;52.136;5.420;2023-04-24T10:50:47;4.32;;;0.65;;
72060;SDS011;59925;52.136;5.420;2023-04-24T10:53:20;1.17;;;0.40;;
72060;SDS011;59925;52.136;5.420;2023-04-24T10:56:02;2.80;;;0.40;;
72060;SDS011;59925;52.136;5.420;2023-04-24T11:01:04;3.83;;;0.50;;
72060;SDS011;59925;52.136;5.420;2023-04-24T11:03:31;3.45;;;0.52;;
72060;SDS011;59925;52.136;5.420;2023-04-24T11:08:28;2.72;;;0.40;;
72060;SDS011;59925;52.136;5.420;2023-04-24T11:10:57;4.30;;;0.43;;
72060;SDS011;59925;52.136;5.420;2023-04-24T11:13:26;2.97;;;0.40;;
72060;SDS011;59925;52.136;5.420;2023-04-24T11:19:02;2.73;;;0.30;;
72060;SDS011;59925;52.136;5.420;2023-04-24T11:21:46;2.75;;;0.65;;
72060;SDS011;59925;52.136;5.420;2023-04-24T11:27:14;2.47;;;0.30;;
72060;SDS011;59925;52.136;5.420;2023-04-24T11:32:34;2.23;;;0.30;;
72060;SDS011;59925;52.136;5.420;2023-04-24T11:35:03;6.95;;;0.50;;
72060;SDS011;59925;52.136;5.420;2023-04-24T11:37:35;4.25;;;0.50;;
72060;SDS011;59925;52.136;5.420;2023-04-24T11:40:06;4.30;;;0.50;;
72060;SDS011;59925;52.136;5.420;2023-04-24T11:42:35;3.60;;;0.40;;
72060;SDS011;59925;52.136;5.420;2023-04-24T11:45:07;4.17;;;0.40;;
72060;SDS011;59925;52.136;5.420;2023-04-24T11:47:41;3.35;;;0.60;;
72060;SDS011;59925;52.136;5.420;2023-04-24T11:50:10;2.50;;;0.55;;
72060;SDS011;59925;52.136;5.420;2023-04-24T11:52:38;2.60;;;0.40;;
72060;SDS011;59925;52.136;5.420;2023-04-24T11:55:07;1.80;;;0.52;;
72060;SDS011;59925;52.136;5.420;2023-04-24T11:57:51;0.60;;;0.20;;
72060;SDS011;59925;52.136;5.420;2023-04-24T12:00:29;1.23;;;0.20;;
72060;SDS011;59925;52.136;5.420;2023-04-24T12:03:05;0.95;;;0.20;;
72060;SDS011;59925;52.136;5.420;2023-04-24T12:05:33;3.30;;;0.20;;
72060;SDS011;59925;52.136;5.420;2023-04-24T12:08:01;1.25;;;0.30;;
72060;SDS011;59925;52.136;5.420;2023-04-24T12:10:28;1.63;;;0.50;;
72060;SDS011;59925;52.136;5.420;2023-04-24T12:12:57;1.42;;;0.38;;
72060;SDS011;59925;52.136;5.420;2023-04-24T12:15:24;1.05;;;0.30;;
72060;SDS011;59925;52.136;5.420;2023-04-24T12:17:52;1.08;;;0.30;;
72060;SDS011;59925;52.136;5.420;2023-04-24T12:20:27;1.88;;;0.40;;
72060;SDS011;59925;52.136;5.420;2023-04-24T12:22:56;2.13;;;0.30;;
72060;SDS011;59925;52.136;5.420;2023-04-24T12:25:24;2.55;;;0.30;;
72060;SDS011;59925;52.136;5.420;2023-04-24T12:27:55;3.53;;;0.50;;
72060;SDS011;59925;52.136;5.420;2023-04-24T12:30:47;3.00;;;0.50;;
72060;SDS011;59925;52.136;5.420;2023-04-24T12:33:17;2.45;;;0.30;;
72060;SDS011;59925;52.136;5.420;2023-04-24T12:35:45;5.30;;;0.63;;
72060;SDS011;59925;52.136;5.420;2023-04-24T12:38:13;2.33;;;0.40;;
72060;SDS011;59925;52.136;5.420;2023-04-24T12:40:40;5.35;;;1.05;;
72060;SDS011;59925;52.136;5.420;2023-04-24T12:43:14;3.70;;;0.40;;
72060;SDS011;59925;52.136;5.420;2023-04-24T12:45:42;4.10;;;0.77;;
72060;SDS011;59925;52.136;5.420;2023-04-24T12:48:10;3.50;;;0.70;;
72060;SDS011;59925;52.136;5.420;2023-04-24T12:50:37;6.43;;;0.60;;
72060;SDS011;59925;52.136;5.420;2023-04-24T12:53:05;2.70;;;0.40;;
72060;SDS011;59925;52.136;5.420;2023-04-24T12:55:32;4.70;;;0.60;;
72060;SDS011;59925;52.136;5.420;2023-04-24T12:57:59;4.35;;;0.60;;
72060;SDS011;59925;52.136;5.420;2023-04-24T13:00:25;4.70;;;0.73;;
72060;SDS011;59925;52.136;5.420;2023-04-24T13:02:52;5.95;;;0.77;;
72060;SDS011;59925;52.136;5.420;2023-04-24T13:05:18;3.97;;;0.85;;
72060;SDS011;59925;52.136;5.420;2023-04-24T13:07:45;4.65;;;0.90;;
72060;SDS011;59925;52.136;5.420;2023-04-24T13:10:11;6.30;;;0.80;;
72060;SDS011;59925;52.136;5.420;2023-04-24T13:12:39;4.97;;;0.90;;
72060;SDS011;59925;52.136;5.420;2023-04-24T13:15:06;7.60;;;0.77;;
72060;SDS011;59925;52.136;5.420;2023-04-24T13:17:33;7.53;;;0.90;;
72060;SDS011;59925;52.136;5.420;2023-04-24T13:19:59;6.15;;;1.10;;
72060;SDS011;59925;52.136;5.420;2023-04-24T13:22:26;12.38;;;1.80;;
72060;SDS011;59925;52.136;5.420;2023-04-24T13:24:53;10.87;;;1.43;;
72060;SDS011;59925;52.136;5.420;2023-04-24T13:27:19;6.68;;;0.73;;
72060;SDS011;59925;52.136;5.420;2023-04-24T13:29:46;7.10;;;0.70;;
72060;SDS011;59925;52.136;5.420;2023-04-24T13:32:12;5.85;;;1.02;;
72060;SDS011;59925;52.136;5.420;2023-04-24T13:34:39;8.10;;;1.08;;
72060;SDS011;59925;52.136;5.420;2023-04-24T13:37:06;6.70;;;1.10;;
72060;SDS011;59925;52.136;5.420;2023-04-24T13:39:34;7.70;;;1.15;;
72060;SDS011;59925;52.136;5.420;2023-04-24T13:42:01;7.53;;;1.30;;
72060;SDS011;59925;52.136;5.420;2023-04-24T13:44:30;5.22;;;1.27;;
72060;SDS011;59925;52.136;5.420;2023-04-24T13:46:57;7.00;;;1.00;;
72060;SDS011;59925;52.136;5.420;2023-04-24T13:49:24;8.07;;;1.00;;
72060;SDS011;59925;52.136;5.420;2023-04-24T13:51:51;5.95;;;1.05;;
72060;SDS011;59925;52.136;5.420;2023-04-24T13:54:19;7.15;;;1.27;;
72060;SDS011;59925;52.136;5.420;2023-04-24T13:56:45;4.85;;;1.00;;
72060;SDS011;59925;52.136;5.420;2023-04-24T13:59:12;5.75;;;1.70;;
72060;SDS011;59925;52.136;5.420;2023-04-24T14:01:39;11.37;;;1.40;;
72060;SDS011;59925;52.136;5.420;2023-04-24T14:04:05;8.50;;;1.38;;
72060;SDS011;59925;52.136;5.420;2023-04-24T14:06:32;7.10;;;1.20;;
72060;SDS011;59925;52.136;5.420;2023-04-24T14:08:59;6.68;;;1.27;;
72060;SDS011;59925;52.136;5.420;2023-04-24T14:11:25;7.90;;;1.10;;
72060;SDS011;59925;52.136;5.420;2023-04-24T14:13:52;9.30;;;1.60;;
72060;SDS011;59925;52.136;5.420;2023-04-24T14:16:20;9.13;;;1.52;;
72060;SDS011;59925;52.136;5.420;2023-04-24T14:18:46;8.35;;;1.50;;
72060;SDS011;59925;52.136;5.420;2023-04-24T14:21:13;5.30;;;1.20;;
72060;SDS011;59925;52.136;5.420;2023-04-24T14:23:39;5.70;;;1.50;;
72060;SDS011;59925;52.136;5.420;2023-04-24T14:26:06;8.27;;;1.67;;
72060;SDS011;59925;52.136;5.420;2023-04-24T14:28:32;6.65;;;1.60;;
72060;SDS011;59925;52.136;5.420;2023-04-24T14:31:00;4.45;;;1.40;;
72060;SDS011;59925;52.136;5.420;2023-04-24T14:33:26;9.90;;;1.67;;
72060;SDS011;59925;52.136;5.420;2023-04-24T14:35:53;9.27;;;1.90;;
72060;SDS011;59925;52.136;5.420;2023-04-24T14:38:20;8.00;;;1.80;;
72060;SDS011;59925;52.136;5.420;2023-04-24T14:40:46;6.72;;;1.60;;
72060;SDS011;59925;52.136;5.420;2023-04-24T14:43:16;8.80;;;1.30;;
72060;SDS011;59925;52.136;5.420;2023-04-24T14:45:42;6.78;;;1.80;;
72060;SDS011;59925;52.136;5.420;2023-04-24T14:48:09;10.48;;;1.65;;
72060;SDS011;59925;52.136;5.420;2023-04-24T14:50:37;6.10;;;2.00;;
72060;SDS011;59925;52.136;5.420;2023-04-24T14:53:03;7.13;;;2.40;;
72060;SDS011;59925;52.136;5.420;2023-04-24T14:55:30;5.10;;;1.45;;
72060;SDS011;59925;52.136;5.420;2023-04-24T14:57:57;6.38;;;1.50;;
72060;SDS011;59925;52.136;5.420;2023-04-24T15:00:24;6.85;;;1.33;;
72060;SDS011;59925;52.136;5.420;2023-04-24T15:02:50;8.90;;;2.13;;